Main page
METAR-TAF:

METAR-TAF

Airports :

Ingolstadt, Germany

Ingolstadt Manching Airport

latitude: 48-43N, longitude: 011-32E, elevation: 367 m

Current weather observation

The report was made 33 minutes ago, at 02:20 UTC
Calm wind
Temperature 12°C
Humidity 88%
Pressure 1021 hPa
Visibility: 5000 m

METAR: ETSI 280220Z AUTO 00000KT 5000 // ////// 12/10 Q1021 ///

Time: 04:53 (02:53 UTC)


TAF: missing

Weather observations and forecasts of more than 4000 airports (METAR and TAF reports).

The available stations are represented by yellow and red dots on the map.

Hover mouse over dot to see the name of the station.

Then click to see weather observations and forecasts.

To change the map : click on the green buttons with a black cross to zoom in, on the green button with a dash to zoom out, or on the green arrows for adjacent maps.


METAR-TAF: